sensor_id;sensor_type;location;lat;lon;timestamp;pressure;altitude;pressure_sealevel;temperature;humidity
75290;BME280;63883;48.996;20.804;2023-02-02T00:01:50;95771.28;;;-2.08;96.68
75290;BME280;63883;48.996;20.804;2023-02-02T00:04:20;95762.16;;;-2.06;96.21
75290;BME280;63883;48.996;20.804;2023-02-02T00:06:46;95760.50;;;-2.06;96.46
75290;BME280;63883;48.996;20.804;2023-02-02T00:09:14;95754.72;;;-1.99;96.69
75290;BME280;63883;48.996;20.804;2023-02-02T00:11:41;95755.63;;;-1.89;96.38
75290;BME280;63883;48.996;20.804;2023-02-02T00:14:07;95754.88;;;-1.80;96.18
75290;BME280;63883;48.996;20.804;2023-02-02T00:16:35;95743.28;;;-1.68;96.39
75290;BME280;63883;48.996;20.804;2023-02-02T00:19:17;95732.50;;;-1.56;95.15
75290;BME280;63883;48.996;20.804;2023-02-02T00:21:43;95742.47;;;-1.62;95.85
75290;BME280;63883;48.996;20.804;2023-02-02T00:24:11;95740.00;;;-1.58;95.71
75290;BME280;63883;48.996;20.804;2023-02-02T00:26:38;95740.00;;;-1.61;96.01
75290;BME280;63883;48.996;20.804;2023-02-02T00:29:06;95739.16;;;-1.61;95.99
75290;BME280;63883;48.996;20.804;2023-02-02T00:31:33;95737.56;;;-1.51;95.21
75290;BME280;63883;48.996;20.804;2023-02-02T00:33:59;95739.16;;;-1.60;95.58
75290;BME280;63883;48.996;20.804;2023-02-02T00:36:25;95722.53;;;-1.53;96.05
75290;BME280;63883;48.996;20.804;2023-02-02T00:38:51;95734.19;;;-1.50;95.16
75290;BME280;63883;48.996;20.804;2023-02-02T00:41:18;95723.41;;;-1.43;95.26
75290;BME280;63883;48.996;20.804;2023-02-02T00:43:44;95721.75;;;-1.44;95.25
75290;BME280;63883;48.996;20.804;2023-02-02T00:46:30;95724.22;;;-1.47;95.59
75290;BME280;63883;48.996;20.804;2023-02-02T00:48:56;95721.78;;;-1.35;95.84
75290;BME280;63883;48.996;20.804;2023-02-02T00:51:21;95726.78;;;-1.35;95.25
75290;BME280;63883;48.996;20.804;2023-02-02T00:53:47;95721.81;;;-1.32;95.35
75290;BME280;63883;48.996;20.804;2023-02-02T00:56:13;95711.78;;;-1.29;95.78
75290;BME280;63883;48.996;20.804;2023-02-02T00:58:38;95713.50;;;-1.25;95.34
75290;BME280;63883;48.996;20.804;2023-02-02T01:01:04;95711.78;;;-1.38;95.61
75290;BME280;63883;48.996;20.804;2023-02-02T01:03:30;95709.25;;;-1.40;95.70
75290;BME280;63883;48.996;20.804;2023-02-02T01:05:55;95713.50;;;-1.30;95.29
75290;BME280;63883;48.996;20.804;2023-02-02T01:08:21;95717.66;;;-1.27;94.96
75290;BME280;63883;48.996;20.804;2023-02-02T01:10:47;95722.59;;;-1.41;95.27
75290;BME280;63883;48.996;20.804;2023-02-02T01:13:13;95712.56;;;-1.48;95.53
75290;BME280;63883;48.996;20.804;2023-02-02T01:15:38;95702.47;;;-1.62;96.29
75290;BME280;63883;48.996;20.804;2023-02-02T01:18:04;95708.25;;;-1.74;96.71
75290;BME280;63883;48.996;20.804;2023-02-02T01:20:30;95717.38;;;-1.80;95.46
75290;BME280;63883;48.996;20.804;2023-02-02T01:22:56;95708.03;;;-2.07;95.43
75290;BME280;63883;48.996;20.804;2023-02-02T01:25:22;95702.09;;;-2.23;95.13
75290;BME280;63883;48.996;20.804;2023-02-02T01:27:48;95698.75;;;-2.26;94.91
75290;BME280;63883;48.996;20.804;2023-02-02T01:30:14;95696.31;;;-2.14;95.36
75290;BME280;63883;48.996;20.804;2023-02-02T01:32:39;95687.94;;;-2.22;94.87
75290;BME280;63883;48.996;20.804;2023-02-02T01:35:06;95691.91;;;-2.49;95.56
75290;BME280;63883;48.996;20.804;2023-02-02T01:37:32;95700.13;;;-2.60;95.36
75290;BME280;63883;48.996;20.804;2023-02-02T01:39:57;95702.50;;;-2.74;96.28
75290;BME280;63883;48.996;20.804;2023-02-02T01:42:23;95694.06;;;-2.85;96.35
75290;BME280;63883;48.996;20.804;2023-02-02T01:45:04;95698.09;;;-2.98;96.62
75290;BME280;63883;48.996;20.804;2023-02-02T01:47:37;95701.47;;;-2.93;97.13
75290;BME280;63883;48.996;20.804;2023-02-02T01:50:05;95700.63;;;-2.96;97.42
75290;BME280;63883;48.996;20.804;2023-02-02T01:52:33;95701.31;;;-3.06;97.88
75290;BME280;63883;48.996;20.804;2023-02-02T01:55:03;95702.84;;;-3.21;98.54
75290;BME280;63883;48.996;20.804;2023-02-02T02:00:00;95701.06;;;-3.29;98.72
75290;BME280;63883;48.996;20.804;2023-02-02T02:02:30;95710.19;;;-3.30;99.43
75290;BME280;63883;48.996;20.804;2023-02-02T02:04:58;95708.69;;;-3.19;99.37
75290;BME280;63883;48.996;20.804;2023-02-02T02:07:26;95706.94;;;-3.26;98.82
75290;BME280;63883;48.996;20.804;2023-02-02T02:09:51;95709.38;;;-3.30;99.89
75290;BME280;63883;48.996;20.804;2023-02-02T02:12:17;95711.06;;;-3.28;99.62
75290;BME280;63883;48.996;20.804;2023-02-02T02:14:46;95710.19;;;-3.30;98.93
75290;BME280;63883;48.996;20.804;2023-02-02T02:18:00;95695.09;;;-3.43;99.21
75290;BME280;63883;48.996;20.804;2023-02-02T02:32:37;95707.31;;;-3.63;99.50
75290;BME280;63883;48.996;20.804;2023-02-02T02:38:14;95700.94;;;-3.38;99.45
75290;BME280;63883;48.996;20.804;2023-02-02T02:40:48;95696.75;;;-3.44;99.54
75290;BME280;63883;48.996;20.804;2023-02-02T02:43:29;95697.50;;;-3.49;99.25
75290;BME280;63883;48.996;20.804;2023-02-02T02:45:56;95697.53;;;-3.48;99.64
75290;BME280;63883;48.996;20.804;2023-02-02T02:48:22;95700.97;;;-3.40;100.00
75290;BME280;63883;48.996;20.804;2023-02-02T02:50:48;95716.72;;;-3.41;99.84
75290;BME280;63883;48.996;20.804;2023-02-02T02:53:20;95716.69;;;-3.42;99.82
75290;BME280;63883;48.996;20.804;2023-02-02T02:58:31;95711.81;;;-3.35;99.79
75290;BME280;63883;48.996;20.804;2023-02-02T03:01:22;95720.22;;;-3.24;99.06
75290;BME280;63883;48.996;20.804;2023-02-02T03:06:33;95720.34;;;-3.18;99.62
75290;BME280;63883;48.996;20.804;2023-02-02T03:09:05;95727.88;;;-3.11;99.68
75290;BME280;63883;48.996;20.804;2023-02-02T03:11:34;95723.88;;;-2.97;99.43
75290;BME280;63883;48.996;20.804;2023-02-02T03:14:00;95729.75;;;-2.91;99.18
75290;BME280;63883;48.996;20.804;2023-02-02T03:16:27;95732.28;;;-2.86;98.94
75290;BME280;63883;48.996;20.804;2023-02-02T03:18:52;95729.84;;;-2.80;98.66
75290;BME280;63883;48.996;20.804;2023-02-02T03:21:20;95734.94;;;-2.72;98.49
75290;BME280;63883;48.996;20.804;2023-02-02T03:23:46;95731.75;;;-2.56;98.04
75290;BME280;63883;48.996;20.804;2023-02-02T03:26:12;95734.28;;;-2.55;98.04
75290;BME280;63883;48.996;20.804;2023-02-02T03:28:38;95738.38;;;-2.58;97.54
75290;BME280;63883;48.996;20.804;2023-02-02T03:31:04;95736.75;;;-2.59;97.66
75290;BME280;63883;48.996;20.804;2023-02-02T03:33:31;95740.88;;;-2.58;98.00
75290;BME280;63883;48.996;20.804;2023-02-02T03:35:57;95744.22;;;-2.59;97.55
75290;BME280;63883;48.996;20.804;2023-02-02T03:38:23;95743.41;;;-2.60;98.06
75290;BME280;63883;48.996;20.804;2023-02-02T03:40:49;95735.06;;;-2.57;98.24
75290;BME280;63883;48.996;20.804;2023-02-02T03:43:22;95749.34;;;-2.43;97.79
75290;BME280;63883;48.996;20.804;2023-02-02T03:46:00;95746.84;;;-2.44;97.39
75290;BME280;63883;48.996;20.804;2023-02-02T03:48:26;95742.75;;;-2.39;96.67
75290;BME280;63883;48.996;20.804;2023-02-02T03:50:52;95736.97;;;-2.32;96.99
75290;BME280;63883;48.996;20.804;2023-02-02T03:53:18;95732.06;;;-2.21;97.25
75290;BME280;63883;48.996;20.804;2023-02-02T03:55:44;95731.44;;;-1.96;97.01
75290;BME280;63883;48.996;20.804;2023-02-02T03:58:10;95739.81;;;-1.88;96.55
75290;BME280;63883;48.996;20.804;2023-02-02T04:00:36;95738.16;;;-1.86;96.36
75290;BME280;63883;48.996;20.804;2023-02-02T04:03:01;95741.56;;;-1.75;98.24
75290;BME280;63883;48.996;20.804;2023-02-02T04:05:27;95750.84;;;-1.54;98.34
75290;BME280;63883;48.996;20.804;2023-02-02T04:07:53;95750.91;;;-1.42;97.62
75290;BME280;63883;48.996;20.804;2023-02-02T04:10:19;95745.94;;;-1.36;97.98
75290;BME280;63883;48.996;20.804;2023-02-02T04:12:45;95743.50;;;-1.31;98.09
75290;BME280;63883;48.996;20.804;2023-02-02T04:15:11;95744.38;;;-1.23;97.73
75290;BME280;63883;48.996;20.804;2023-02-02T04:17:37;95752.72;;;-1.12;97.73
75290;BME280;63883;48.996;20.804;2023-02-02T04:20:04;95756.06;;;-1.11;97.89
75290;BME280;63883;48.996;20.804;2023-02-02T04:22:30;95761.09;;;-1.08;97.86
75290;BME280;63883;48.996;20.804;2023-02-02T04:24:56;95773.66;;;-0.95;97.40
75290;BME280;63883;48.996;20.804;2023-02-02T04:27:22;95771.13;;;-0.99;97.72
75290;BME280;63883;48.996;20.804;2023-02-02T04:29:47;95765.34;;;-0.85;97.49
75290;BME280;63883;48.996;20.804;2023-02-02T04:32:14;95765.34;;;-0.79;97.07
75290;BME280;63883;48.996;20.804;2023-02-02T04:34:41;95772.03;;;-0.77;97.31
75290;BME280;63883;48.996;20.804;2023-02-02T04:37:07;95780.34;;;-0.85;97.39
75290;BME280;63883;48.996;20.804;2023-02-02T04:39:33;95777.84;;;-0.89;97.51
75290;BME280;63883;48.996;20.804;2023-02-02T04:41:58;95775.34;;;-0.91;97.65
75290;BME280;63883;48.996;20.804;2023-02-02T04:44:24;95778.66;;;-0.92;97.54
75290;BME280;63883;48.996;20.804;2023-02-02T04:46:50;95785.34;;;-0.91;97.45
75290;BME280;63883;48.996;20.804;2023-02-02T04:49:16;95782.78;;;-1.00;97.95
75290;BME280;63883;48.996;20.804;2023-02-02T04:51:41;95793.63;;;-1.04;98.13
75290;BME280;63883;48.996;20.804;2023-02-02T04:54:07;95790.22;;;-1.18;97.76
75290;BME280;63883;48.996;20.804;2023-02-02T04:56:33;95794.34;;;-1.31;97.96
75290;BME280;63883;48.996;20.804;2023-02-02T04:58:59;95805.09;;;-1.42;98.59
75290;BME280;63883;48.996;20.804;2023-02-02T05:01:25;95799.19;;;-1.53;99.12
75290;BME280;63883;48.996;20.804;2023-02-02T05:03:51;95802.53;;;-1.53;99.44
75290;BME280;63883;48.996;20.804;2023-02-02T05:06:17;95805.06;;;-1.48;99.09
75290;BME280;63883;48.996;20.804;2023-02-02T05:08:45;95812.50;;;-1.54;98.51
75290;BME280;63883;48.996;20.804;2023-02-02T05:11:17;95804.88;;;-1.76;98.23
75290;BME280;63883;48.996;20.804;2023-02-02T05:13:51;95819.78;;;-1.88;98.33
75290;BME280;63883;48.996;20.804;2023-02-02T05:16:17;95816.44;;;-1.85;98.63
75290;BME280;63883;48.996;20.804;2023-02-02T05:18:51;95815.66;;;-1.80;98.48
75290;BME280;63883;48.996;20.804;2023-02-02T05:21:17;95813.06;;;-1.92;98.25
75290;BME280;63883;48.996;20.804;2023-02-02T05:23:43;95827.91;;;-2.07;98.26
75290;BME280;63883;48.996;20.804;2023-02-02T05:26:18;95813.81;;;-2.02;98.14
75290;BME280;63883;48.996;20.804;2023-02-02T05:28:45;95815.47;;;-2.01;97.34
75290;BME280;63883;48.996;20.804;2023-02-02T05:31:11;95817.97;;;-2.01;97.41
75290;BME280;63883;48.996;20.804;2023-02-02T05:33:37;95827.19;;;-1.97;98.13
75290;BME280;63883;48.996;20.804;2023-02-02T05:36:03;95821.19;;;-2.14;98.10
75290;BME280;63883;48.996;20.804;2023-02-02T05:38:29;95826.13;;;-2.22;98.19
75290;BME280;63883;48.996;20.804;2023-02-02T05:40:55;95822.81;;;-2.19;98.60
75290;BME280;63883;48.996;20.804;2023-02-02T05:43:24;95832.81;;;-2.19;98.07
75290;BME280;63883;48.996;20.804;2023-02-02T05:45:50;95824.28;;;-2.41;98.08
75290;BME280;63883;48.996;20.804;2023-02-02T05:48:16;95822.34;;;-2.65;98.42
75290;BME280;63883;48.996;20.804;2023-02-02T05:50:43;95838.75;;;-2.85;98.42
75290;BME280;63883;48.996;20.804;2023-02-02T05:53:12;95846.09;;;-2.94;98.64
75290;BME280;63883;48.996;20.804;2023-02-02T05:55:38;95841.19;;;-2.90;99.11
75290;BME280;63883;48.996;20.804;2023-02-02T05:58:04;95847.84;;;-2.90;99.83
75290;BME280;63883;48.996;20.804;2023-02-02T06:00:30;95845.28;;;-2.93;100.00
75290;BME280;63883;48.996;20.804;2023-02-02T06:02:56;95842.78;;;-2.93;100.00
75290;BME280;63883;48.996;20.804;2023-02-02T06:05:22;95852.69;;;-2.99;100.00
75290;BME280;63883;48.996;20.804;2023-02-02T06:07:47;95845.22;;;-2.99;100.00
75290;BME280;63883;48.996;20.804;2023-02-02T06:10:13;95861.19;;;-2.85;100.00
75290;BME280;63883;48.996;20.804;2023-02-02T06:12:39;95859.69;;;-2.71;100.00
75290;BME280;63883;48.996;20.804;2023-02-02T06:15:05;95864.97;;;-2.47;100.00
75290;BME280;63883;48.996;20.804;2023-02-02T06:17:31;95858.53;;;-2.26;99.11
75290;BME280;63883;48.996;20.804;2023-02-02T06:19:57;95862.81;;;-2.15;99.22
75290;BME280;63883;48.996;20.804;2023-02-02T06:22:22;95852.78;;;-2.19;99.00
75290;BME280;63883;48.996;20.804;2023-02-02T06:24:48;95855.13;;;-2.34;98.81
75290;BME280;63883;48.996;20.804;2023-02-02T06:27:14;95850.94;;;-2.36;99.36
75290;BME280;63883;48.996;20.804;2023-02-02T06:29:40;95853.59;;;-2.23;99.69
75290;BME280;63883;48.996;20.804;2023-02-02T06:32:05;95855.31;;;-2.16;99.19
75290;BME280;63883;48.996;20.804;2023-02-02T06:34:31;95855.25;;;-2.24;98.36
75290;BME280;63883;48.996;20.804;2023-02-02T06:36:57;95864.22;;;-2.40;98.23
75290;BME280;63883;48.996;20.804;2023-02-02T06:39:22;95864.97;;;-2.48;97.42
75290;BME280;63883;48.996;20.804;2023-02-02T06:41:48;95854.94;;;-2.50;97.48
75290;BME280;63883;48.996;20.804;2023-02-02T06:44:16;95854.91;;;-2.54;97.38
75290;BME280;63883;48.996;20.804;2023-02-02T06:46:44;95861.69;;;-2.46;97.19
75290;BME280;63883;48.996;20.804;2023-02-02T06:49:09;95865.13;;;-2.33;95.47
75290;BME280;63883;48.996;20.804;2023-02-02T06:51:35;95872.72;;;-2.22;94.75
75290;BME280;63883;48.996;20.804;2023-02-02T06:54:01;95865.19;;;-2.27;95.36
75290;BME280;63883;48.996;20.804;2023-02-02T06:56:28;95861.75;;;-2.37;95.53
75290;BME280;63883;48.996;20.804;2023-02-02T06:58:54;95859.31;;;-2.33;96.18
75290;BME280;63883;48.996;20.804;2023-02-02T07:01:20;95856.75;;;-2.40;95.74
75290;BME280;63883;48.996;20.804;2023-02-02T07:03:49;95864.22;;;-2.41;95.88
75290;BME280;63883;48.996;20.804;2023-02-02T07:06:18;95861.75;;;-2.37;95.96
75290;BME280;63883;48.996;20.804;2023-02-02T07:08:45;95873.56;;;-2.23;96.06
75290;BME280;63883;48.996;20.804;2023-02-02T07:11:11;95879.53;;;-2.09;95.88
75290;BME280;63883;48.996;20.804;2023-02-02T07:13:37;95867.94;;;-2.03;96.09
75290;BME280;63883;48.996;20.804;2023-02-02T07:16:04;95867.31;;;-1.79;95.04
75290;BME280;63883;48.996;20.804;2023-02-02T07:18:30;95862.41;;;-1.70;93.17
75290;BME280;63883;48.996;20.804;2023-02-02T07:20:59;95868.28;;;-1.63;93.69
75290;BME280;63883;48.996;20.804;2023-02-02T07:23:26;95871.69;;;-1.53;93.00
75290;BME280;63883;48.996;20.804;2023-02-02T07:26:19;95867.63;;;-1.36;93.02
75290;BME280;63883;48.996;20.804;2023-02-02T07:28:45;95871.88;;;-1.26;92.63
75290;BME280;63883;48.996;20.804;2023-02-02T07:31:23;95870.28;;;-1.13;92.04
75290;BME280;63883;48.996;20.804;2023-02-02T07:33:49;95872.88;;;-1.01;91.76
75290;BME280;63883;48.996;20.804;2023-02-02T07:36:17;95883.88;;;-0.73;90.96
75290;BME280;63883;48.996;20.804;2023-02-02T07:38:44;95880.66;;;-0.42;86.95
75290;BME280;63883;48.996;20.804;2023-02-02T07:41:11;95878.97;;;-0.46;86.74
75290;BME280;63883;48.996;20.804;2023-02-02T07:43:37;95889.03;;;-0.34;87.38
75290;BME280;63883;48.996;20.804;2023-02-02T07:46:04;95893.28;;;-0.12;86.25
75290;BME280;63883;48.996;20.804;2023-02-02T07:48:33;95892.50;;;0.09;85.95
75290;BME280;63883;48.996;20.804;2023-02-02T07:50:59;95896.69;;;0.24;85.40
75290;BME280;63883;48.996;20.804;2023-02-02T07:53:26;95899.22;;;0.27;83.25
75290;BME280;63883;48.996;20.804;2023-02-02T07:55:52;95898.38;;;0.25;84.09
75290;BME280;63883;48.996;20.804;2023-02-02T07:58:18;95884.19;;;0.36;83.93
75290;BME280;63883;48.996;20.804;2023-02-02T08:00:43;95894.22;;;0.48;83.25
75290;BME280;63883;48.996;20.804;2023-02-02T08:03:12;95885.03;;;0.71;83.16
75290;BME280;63883;48.996;20.804;2023-02-02T08:05:37;95881.69;;;0.56;83.44
75290;BME280;63883;48.996;20.804;2023-02-02T08:08:03;95870.81;;;0.34;84.39
75290;BME280;63883;48.996;20.804;2023-02-02T08:10:29;95888.34;;;0.66;83.43
75290;BME280;63883;48.996;20.804;2023-02-02T08:12:55;95886.59;;;1.30;81.67
75290;BME280;63883;48.996;20.804;2023-02-02T08:15:20;95878.88;;;1.79;78.82
75290;BME280;63883;48.996;20.804;2023-02-02T08:17:46;95875.53;;;1.78;78.48
75290;BME280;63883;48.996;20.804;2023-02-02T08:20:14;95872.91;;;1.95;78.12
75290;BME280;63883;48.996;20.804;2023-02-02T08:22:40;95878.09;;;2.91;73.69
75290;BME280;63883;48.996;20.804;2023-02-02T08:25:07;95877.31;;;3.66;68.83
75290;BME280;63883;48.996;20.804;2023-02-02T08:27:33;95876.59;;;4.20;64.34
75290;BME280;63883;48.996;20.804;2023-02-02T08:29:58;95868.00;;;4.87;61.07
75290;BME280;63883;48.996;20.804;2023-02-02T08:32:24;95874.53;;;5.90;58.58
75290;BME280;63883;48.996;20.804;2023-02-02T08:34:50;95880.59;;;6.59;56.36
75290;BME280;63883;48.996;20.804;2023-02-02T08:37:18;95881.78;;;7.14;54.96
75290;BME280;63883;48.996;20.804;2023-02-02T08:39:44;95884.31;;;6.80;55.47
75290;BME280;63883;48.996;20.804;2023-02-02T08:42:10;95864.72;;;5.73;58.00
75290;BME280;63883;48.996;20.804;2023-02-02T08:44:35;95876.16;;;5.03;59.94
75290;BME280;63883;48.996;20.804;2023-02-02T08:47:01;95880.25;;;5.08;60.07
75290;BME280;63883;48.996;20.804;2023-02-02T08:49:27;95874.50;;;4.48;61.15
75290;BME280;63883;48.996;20.804;2023-02-02T08:51:53;95872.66;;;4.01;63.14
75290;BME280;63883;48.996;20.804;2023-02-02T08:54:19;95877.09;;;3.82;62.49
75290;BME280;63883;48.996;20.804;2023-02-02T08:56:45;95885.13;;;3.43;64.40
75290;BME280;63883;48.996;20.804;2023-02-02T08:59:10;95884.28;;;3.45;64.64
75290;BME280;63883;48.996;20.804;2023-02-02T09:01:36;95879.09;;;4.79;60.58
75290;BME280;63883;48.996;20.804;2023-02-02T09:04:06;95881.06;;;5.55;56.83
75290;BME280;63883;48.996;20.804;2023-02-02T09:06:35;95881.09;;;5.98;55.20
75290;BME280;63883;48.996;20.804;2023-02-02T09:09:03;95898.19;;;5.88;54.65
75290;BME280;63883;48.996;20.804;2023-02-02T09:11:29;95900.13;;;5.28;55.72
75290;BME280;63883;48.996;20.804;2023-02-02T09:13:56;95896.69;;;4.83;57.94
75290;BME280;63883;48.996;20.804;2023-02-02T09:16:24;95892.72;;;4.10;60.20
75290;BME280;63883;48.996;20.804;2023-02-02T09:18:50;95892.41;;;3.69;63.22
75290;BME280;63883;48.996;20.804;2023-02-02T09:21:17;95897.06;;;3.26;65.74
75290;BME280;63883;48.996;20.804;2023-02-02T09:23:45;95898.25;;;2.88;67.33
75290;BME280;63883;48.996;20.804;2023-02-02T09:28:39;95912.69;;;2.71;68.86
75290;BME280;63883;48.996;20.804;2023-02-02T09:31:05;95914.41;;;2.63;69.30
75290;BME280;63883;48.996;20.804;2023-02-02T09:33:32;95911.06;;;2.64;69.88
75290;BME280;63883;48.996;20.804;2023-02-02T09:36:10;95906.13;;;2.50;70.53
75290;BME280;63883;48.996;20.804;2023-02-02T09:38:37;95919.44;;;2.64;70.57
75290;BME280;63883;48.996;20.804;2023-02-02T09:49:14;95907.75;;;3.49;67.50
75290;BME280;63883;48.996;20.804;2023-02-02T09:51:45;95904.44;;;3.45;67.18
75290;BME280;63883;48.996;20.804;2023-02-02T09:54:20;95913.09;;;3.19;67.67
75290;BME280;63883;48.996;20.804;2023-02-02T09:56:50;95906.34;;;3.22;67.82
75290;BME280;63883;48.996;20.804;2023-02-02T09:59:27;95903.53;;;3.52;67.82
75290;BME280;63883;48.996;20.804;2023-02-02T10:01:56;95912.22;;;3.98;66.55
75290;BME280;63883;48.996;20.804;2023-02-02T10:04:30;95900.91;;;4.26;65.96
75290;BME280;63883;48.996;20.804;2023-02-02T10:07:05;95901.53;;;4.40;64.02
75290;BME280;63883;48.996;20.804;2023-02-02T10:09:51;95893.22;;;4.35;65.00
75290;BME280;63883;48.996;20.804;2023-02-02T10:12:42;95899.94;;;4.36;65.02
75290;BME280;63883;48.996;20.804;2023-02-02T10:18:03;95893.44;;;4.20;60.02
75290;BME280;63883;48.996;20.804;2023-02-02T10:20:51;95894.69;;;4.50;62.46
75290;BME280;63883;48.996;20.804;2023-02-02T10:23:35;95901.16;;;4.67;62.51
75290;BME280;63883;48.996;20.804;2023-02-02T10:26:13;95886.53;;;4.88;59.41
75290;BME280;63883;48.996;20.804;2023-02-02T10:34:01;95901.38;;;6.37;52.71
75290;BME280;63883;48.996;20.804;2023-02-02T10:39:49;95888.19;;;5.36;55.45
75290;BME280;63883;48.996;20.804;2023-02-02T10:44:58;95888.13;;;4.90;56.12
75290;BME280;63883;48.996;20.804;2023-02-02T10:47:27;95890.66;;;4.90;57.38
75290;BME280;63883;48.996;20.804;2023-02-02T10:50:21;95887.06;;;5.05;56.57
75290;BME280;63883;48.996;20.804;2023-02-02T10:52:54;95893.94;;;4.97;56.82
75290;BME280;63883;48.996;20.804;2023-02-02T11:00:45;95884.56;;;4.51;59.75
75290;BME280;63883;48.996;20.804;2023-02-02T11:03:16;95902.56;;;4.28;60.94
75290;BME280;63883;48.996;20.804;2023-02-02T11:05:44;95894.91;;;4.33;61.58
75290;BME280;63883;48.996;20.804;2023-02-02T11:08:33;95896.19;;;4.03;61.93
75290;BME280;63883;48.996;20.804;2023-02-02T11:11:33;95898.28;;;3.69;63.11
75290;BME280;63883;48.996;20.804;2023-02-02T11:16:44;95895.81;;;3.65;64.58
75290;BME280;63883;48.996;20.804;2023-02-02T11:19:31;95897.53;;;3.61;64.47
75290;BME280;63883;48.996;20.804;2023-02-02T11:22:00;95895.13;;;3.50;65.39
75290;BME280;63883;48.996;20.804;2023-02-02T11:24:30;95893.41;;;3.54;65.44
75290;BME280;63883;48.996;20.804;2023-02-02T11:27:11;95895.81;;;3.63;64.48
75290;BME280;63883;48.996;20.804;2023-02-02T11:34:48;95892.41;;;3.69;64.84
75290;BME280;63883;48.996;20.804;2023-02-02T11:37:19;95875.59;;;3.69;64.17
75290;BME280;63883;48.996;20.804;2023-02-02T11:39:45;95867.28;;;3.61;65.45
75290;BME280;63883;48.996;20.804;2023-02-02T11:42:20;95883.16;;;3.69;64.88
75290;BME280;63883;48.996;20.804;2023-02-02T11:44:52;95877.34;;;3.63;64.67
75290;BME280;63883;48.996;20.804;2023-02-02T11:47:29;95870.63;;;3.63;65.04
75290;BME280;63883;48.996;20.804;2023-02-02T11:49:57;95873.13;;;3.65;65.12
75290;BME280;63883;48.996;20.804;2023-02-02T11:52:27;95877.41;;;3.60;65.69
75290;BME280;63883;48.996;20.804;2023-02-02T11:54:56;95879.13;;;3.54;65.94
75290;BME280;63883;48.996;20.804;2023-02-02T11:57:24;95867.16;;;3.72;65.06
75290;BME280;63883;48.996;20.804;2023-02-02T12:02:44;95873.13;;;3.63;65.22
75290;BME280;63883;48.996;20.804;2023-02-02T12:05:12;95879.03;;;3.62;65.18
75290;BME280;63883;48.996;20.804;2023-02-02T12:07:40;95871.38;;;3.70;64.87
75290;BME280;63883;48.996;20.804;2023-02-02T12:10:26;95882.31;;;3.69;64.26
75290;BME280;63883;48.996;20.804;2023-02-02T12:12:57;95862.03;;;3.76;64.19
75290;BME280;63883;48.996;20.804;2023-02-02T12:15:35;95874.47;;;3.90;64.46
75290;BME280;63883;48.996;20.804;2023-02-02T12:18:43;95877.91;;;3.84;64.44
75290;BME280;63883;48.996;20.804;2023-02-02T12:24:19;95886.38;;;3.80;64.59
75290;BME280;63883;48.996;20.804;2023-02-02T12:27:20;95887.31;;;3.73;64.62
75290;BME280;63883;48.996;20.804;2023-02-02T12:30:01;95889.03;;;3.68;65.55
75290;BME280;63883;48.996;20.804;2023-02-02T12:43:46;95891.00;;;3.45;69.10
75290;BME280;63883;48.996;20.804;2023-02-02T12:46:55;95891.13;;;3.33;69.95
75290;BME280;63883;48.996;20.804;2023-02-02T13:05:00;95908.03;;;3.22;71.04
75290;BME280;63883;48.996;20.804;2023-02-02T13:12:42;95923.41;;;2.94;72.92
75290;BME280;63883;48.996;20.804;2023-02-02T13:15:15;95912.44;;;3.00;72.92
75290;BME280;63883;48.996;20.804;2023-02-02T13:17:53;95931.03;;;2.85;75.04
75290;BME280;63883;48.996;20.804;2023-02-02T13:20:30;95929.38;;;2.83;73.42
75290;BME280;63883;48.996;20.804;2023-02-02T13:23:06;95922.53;;;2.98;73.48
75290;BME280;63883;48.996;20.804;2023-02-02T13:25:39;95907.41;;;3.01;72.81
75290;BME280;63883;48.996;20.804;2023-02-02T13:31:01;95905.44;;;3.29;71.89
75290;BME280;63883;48.996;20.804;2023-02-02T13:33:32;95916.34;;;3.31;71.57
75290;BME280;63883;48.996;20.804;2023-02-02T13:36:04;95923.81;;;3.40;70.94
75290;BME280;63883;48.996;20.804;2023-02-02T13:38:30;95920.34;;;3.49;71.22
75290;BME280;63883;48.996;20.804;2023-02-02T13:41:05;95922.13;;;3.41;71.83
75290;BME280;63883;48.996;20.804;2023-02-02T13:49:16;95924.84;;;3.23;72.04
75290;BME280;63883;48.996;20.804;2023-02-02T13:52:14;95926.50;;;3.22;71.29
75290;BME280;63883;48.996;20.804;2023-02-02T14:00:23;95928.91;;;3.34;71.56
75290;BME280;63883;48.996;20.804;2023-02-02T14:02:55;95942.47;;;3.23;72.28
75290;BME280;63883;48.996;20.804;2023-02-02T14:05:37;95940.00;;;3.17;73.22
75290;BME280;63883;48.996;20.804;2023-02-02T14:08:23;95936.69;;;3.11;73.56
75290;BME280;63883;48.996;20.804;2023-02-02T14:13:22;95950.28;;;2.95;74.77
75290;BME280;63883;48.996;20.804;2023-02-02T14:16:20;95945.25;;;2.94;74.51
75290;BME280;63883;48.996;20.804;2023-02-02T14:18:51;95952.00;;;2.87;75.00
75290;BME280;63883;48.996;20.804;2023-02-02T14:26:49;95963.00;;;2.75;71.57
75290;BME280;63883;48.996;20.804;2023-02-02T14:32:03;95970.38;;;2.98;70.07
75290;BME280;63883;48.996;20.804;2023-02-02T14:34:50;95967.72;;;3.17;66.53
75290;BME280;63883;48.996;20.804;2023-02-02T14:43:10;96001.16;;;3.32;66.29
75290;BME280;63883;48.996;20.804;2023-02-02T14:51:29;95999.03;;;2.82;66.86
75290;BME280;63883;48.996;20.804;2023-02-02T14:53:58;96014.72;;;3.18;64.43
75290;BME280;63883;48.996;20.804;2023-02-02T14:56:43;96010.31;;;3.44;64.13
75290;BME280;63883;48.996;20.804;2023-02-02T14:59:17;96020.59;;;3.18;63.97
75290;BME280;63883;48.996;20.804;2023-02-02T15:01:58;96030.72;;;3.13;64.63
75290;BME280;63883;48.996;20.804;2023-02-02T15:04:26;96029.94;;;3.05;65.67
75290;BME280;63883;48.996;20.804;2023-02-02T15:06:52;96035.94;;;2.86;66.59
75290;BME280;63883;48.996;20.804;2023-02-02T15:15:11;96049.59;;;2.41;68.16
75290;BME280;63883;48.996;20.804;2023-02-02T15:20:11;96062.22;;;2.35;67.89
75290;BME280;63883;48.996;20.804;2023-02-02T15:22:44;96067.31;;;2.23;67.37
75290;BME280;63883;48.996;20.804;2023-02-02T15:25:21;96079.00;;;2.27;64.74
75290;BME280;63883;48.996;20.804;2023-02-02T15:30:53;96094.16;;;2.15;65.51
75290;BME280;63883;48.996;20.804;2023-02-02T15:33:36;96114.28;;;2.09;65.18
75290;BME280;63883;48.996;20.804;2023-02-02T15:36:17;96117.63;;;2.15;63.82